sensor_id;sensor_type;location;lat;lon;timestamp;P1;durP1;ratioP1;P2;durP2;ratioP2
26588;SDS011;14235;48.532;8.722;2024-03-08T00:02:17;22.90;;;15.45;;
26588;SDS011;14235;48.532;8.722;2024-03-08T00:04:43;21.75;;;15.70;;
26588;SDS011;14235;48.532;8.722;2024-03-08T00:07:09;20.83;;;15.05;;
26588;SDS011;14235;48.532;8.722;2024-03-08T00:09:35;19.83;;;15.30;;
26588;SDS011;14235;48.532;8.722;2024-03-08T00:12:01;22.10;;;14.93;;
26588;SDS011;14235;48.532;8.722;2024-03-08T00:14:27;18.23;;;14.43;;
26588;SDS011;14235;48.532;8.722;2024-03-08T00:16:53;19.48;;;14.25;;
26588;SDS011;14235;48.532;8.722;2024-03-08T00:19:19;20.02;;;14.70;;
26588;SDS011;14235;48.532;8.722;2024-03-08T00:21:45;20.40;;;15.27;;
26588;SDS011;14235;48.532;8.722;2024-03-08T00:24:11;19.25;;;14.82;;
26588;SDS011;14235;48.532;8.722;2024-03-08T00:26:37;18.80;;;14.95;;
26588;SDS011;14235;48.532;8.722;2024-03-08T00:29:03;20.63;;;15.25;;
26588;SDS011;14235;48.532;8.722;2024-03-08T00:31:29;20.00;;;14.30;;
26588;SDS011;14235;48.532;8.722;2024-03-08T00:33:58;20.13;;;14.77;;
26588;SDS011;14235;48.532;8.722;2024-03-08T00:36:24;18.53;;;14.20;;
26588;SDS011;14235;48.532;8.722;2024-03-08T00:38:51;18.87;;;14.70;;
26588;SDS011;14235;48.532;8.722;2024-03-08T00:41:17;21.55;;;15.48;;
26588;SDS011;14235;48.532;8.722;2024-03-08T00:43:43;17.85;;;13.77;;
26588;SDS011;14235;48.532;8.722;2024-03-08T00:46:09;20.02;;;14.25;;
26588;SDS011;14235;48.532;8.722;2024-03-08T00:48:35;18.73;;;14.77;;
26588;SDS011;14235;48.532;8.722;2024-03-08T00:51:02;20.10;;;14.90;;
26588;SDS011;14235;48.532;8.722;2024-03-08T00:53:29;22.67;;;15.47;;
26588;SDS011;14235;48.532;8.722;2024-03-08T00:55:55;21.87;;;15.97;;
26588;SDS011;14235;48.532;8.722;2024-03-08T00:58:21;20.67;;;15.47;;
26588;SDS011;14235;48.532;8.722;2024-03-08T01:00:48;17.63;;;14.20;;
26588;SDS011;14235;48.532;8.722;2024-03-08T01:03:14;19.53;;;14.37;;
26588;SDS011;14235;48.532;8.722;2024-03-08T01:05:40;19.83;;;15.03;;
26588;SDS011;14235;48.532;8.722;2024-03-08T01:08:06;23.30;;;14.93;;
26588;SDS011;14235;48.532;8.722;2024-03-08T01:10:33;19.30;;;15.07;;
26588;SDS011;14235;48.532;8.722;2024-03-08T01:12:59;23.57;;;16.47;;
26588;SDS011;14235;48.532;8.722;2024-03-08T01:15:25;23.17;;;16.53;;
26588;SDS011;14235;48.532;8.722;2024-03-08T01:17:51;21.00;;;15.73;;
26588;SDS011;14235;48.532;8.722;2024-03-08T01:20:17;22.30;;;15.30;;
26588;SDS011;14235;48.532;8.722;2024-03-08T01:22:43;20.73;;;15.20;;
26588;SDS011;14235;48.532;8.722;2024-03-08T01:25:09;20.97;;;15.10;;
26588;SDS011;14235;48.532;8.722;2024-03-08T01:27:35;20.33;;;15.40;;
26588;SDS011;14235;48.532;8.722;2024-03-08T01:30:02;19.47;;;15.27;;
26588;SDS011;14235;48.532;8.722;2024-03-08T01:32:29;19.67;;;15.37;;
26588;SDS011;14235;48.532;8.722;2024-03-08T01:34:55;20.63;;;15.30;;
26588;SDS011;14235;48.532;8.722;2024-03-08T01:37:21;21.43;;;15.30;;
26588;SDS011;14235;48.532;8.722;2024-03-08T01:39:47;20.30;;;14.57;;
26588;SDS011;14235;48.532;8.722;2024-03-08T01:42:12;19.37;;;14.87;;
26588;SDS011;14235;48.532;8.722;2024-03-08T01:44:40;20.90;;;15.13;;
26588;SDS011;14235;48.532;8.722;2024-03-08T01:47:06;22.43;;;16.00;;
26588;SDS011;14235;48.532;8.722;2024-03-08T01:49:32;21.97;;;14.77;;
26588;SDS011;14235;48.532;8.722;2024-03-08T01:51:58;20.43;;;15.57;;
26588;SDS011;14235;48.532;8.722;2024-03-08T01:54:24;19.50;;;15.13;;
26588;SDS011;14235;48.532;8.722;2024-03-08T01:56:50;21.17;;;14.93;;
26588;SDS011;14235;48.532;8.722;2024-03-08T01:59:18;20.67;;;15.07;;
26588;SDS011;14235;48.532;8.722;2024-03-08T02:01:44;21.50;;;15.33;;
26588;SDS011;14235;48.532;8.722;2024-03-08T02:04:10;20.53;;;14.87;;
26588;SDS011;14235;48.532;8.722;2024-03-08T02:06:36;19.50;;;14.10;;
26588;SDS011;14235;48.532;8.722;2024-03-08T02:09:03;19.67;;;14.80;;
26588;SDS011;14235;48.532;8.722;2024-03-08T02:11:33;19.83;;;14.43;;
26588;SDS011;14235;48.532;8.722;2024-03-08T02:14:01;22.43;;;15.03;;
26588;SDS011;14235;48.532;8.722;2024-03-08T02:16:26;22.43;;;15.53;;
26588;SDS011;14235;48.532;8.722;2024-03-08T02:18:53;19.83;;;14.97;;
26588;SDS011;14235;48.532;8.722;2024-03-08T02:21:18;20.97;;;14.20;;
26588;SDS011;14235;48.532;8.722;2024-03-08T02:23:44;19.57;;;14.73;;
26588;SDS011;14235;48.532;8.722;2024-03-08T02:26:10;22.80;;;15.47;;
26588;SDS011;14235;48.532;8.722;2024-03-08T02:28:36;22.33;;;14.90;;
26588;SDS011;14235;48.532;8.722;2024-03-08T02:31:03;21.90;;;15.03;;
26588;SDS011;14235;48.532;8.722;2024-03-08T02:33:33;20.90;;;14.97;;
26588;SDS011;14235;48.532;8.722;2024-03-08T02:35:59;19.35;;;14.70;;
26588;SDS011;14235;48.532;8.722;2024-03-08T02:38:25;18.03;;;13.97;;
26588;SDS011;14235;48.532;8.722;2024-03-08T02:40:51;20.87;;;14.63;;
26588;SDS011;14235;48.532;8.722;2024-03-08T02:43:18;20.50;;;14.23;;
26588;SDS011;14235;48.532;8.722;2024-03-08T02:45:44;20.23;;;14.93;;
26588;SDS011;14235;48.532;8.722;2024-03-08T02:48:10;20.93;;;15.10;;
26588;SDS011;14235;48.532;8.722;2024-03-08T02:50:37;18.73;;;14.57;;
26588;SDS011;14235;48.532;8.722;2024-03-08T02:53:05;20.20;;;14.43;;
26588;SDS011;14235;48.532;8.722;2024-03-08T02:55:31;21.57;;;14.63;;
26588;SDS011;14235;48.532;8.722;2024-03-08T02:58:00;22.00;;;14.40;;
26588;SDS011;14235;48.532;8.722;2024-03-08T03:00:26;22.43;;;16.03;;
26588;SDS011;14235;48.532;8.722;2024-03-08T03:02:53;20.23;;;14.77;;
26588;SDS011;14235;48.532;8.722;2024-03-08T03:05:22;20.00;;;13.47;;
26588;SDS011;14235;48.532;8.722;2024-03-08T03:07:48;21.67;;;15.73;;
26588;SDS011;14235;48.532;8.722;2024-03-08T03:10:16;23.17;;;15.17;;
26588;SDS011;14235;48.532;8.722;2024-03-08T03:12:43;20.23;;;14.40;;
26588;SDS011;14235;48.532;8.722;2024-03-08T03:15:10;19.73;;;14.47;;
26588;SDS011;14235;48.532;8.722;2024-03-08T03:17:36;20.90;;;15.00;;
26588;SDS011;14235;48.532;8.722;2024-03-08T03:20:04;20.10;;;14.48;;
26588;SDS011;14235;48.532;8.722;2024-03-08T03:22:34;18.73;;;14.17;;
26588;SDS011;14235;48.532;8.722;2024-03-08T03:25:00;20.63;;;15.20;;
26588;SDS011;14235;48.532;8.722;2024-03-08T03:27:27;19.60;;;14.83;;
26588;SDS011;14235;48.532;8.722;2024-03-08T03:29:55;18.77;;;13.87;;
26588;SDS011;14235;48.532;8.722;2024-03-08T03:32:22;21.30;;;14.93;;
26588;SDS011;14235;48.532;8.722;2024-03-08T03:34:49;18.67;;;14.73;;
26588;SDS011;14235;48.532;8.722;2024-03-08T03:37:20;19.63;;;13.80;;
26588;SDS011;14235;48.532;8.722;2024-03-08T03:39:47;19.23;;;14.20;;
26588;SDS011;14235;48.532;8.722;2024-03-08T03:42:18;18.73;;;14.70;;
26588;SDS011;14235;48.532;8.722;2024-03-08T03:44:48;22.17;;;15.70;;
26588;SDS011;14235;48.532;8.722;2024-03-08T03:47:16;20.90;;;15.03;;
26588;SDS011;14235;48.532;8.722;2024-03-08T03:49:42;22.93;;;15.83;;
26588;SDS011;14235;48.532;8.722;2024-03-08T03:52:09;20.93;;;14.40;;
26588;SDS011;14235;48.532;8.722;2024-03-08T03:54:35;21.93;;;15.53;;
26588;SDS011;14235;48.532;8.722;2024-03-08T03:57:01;22.83;;;15.47;;
26588;SDS011;14235;48.532;8.722;2024-03-08T03:59:27;22.40;;;15.13;;
26588;SDS011;14235;48.532;8.722;2024-03-08T04:01:53;20.73;;;15.50;;
26588;SDS011;14235;48.532;8.722;2024-03-08T04:04:20;21.83;;;16.00;;
26588;SDS011;14235;48.532;8.722;2024-03-08T04:06:46;27.67;;;16.73;;
26588;SDS011;14235;48.532;8.722;2024-03-08T04:09:12;23.87;;;16.70;;
26588;SDS011;14235;48.532;8.722;2024-03-08T04:11:39;25.67;;;16.27;;
26588;SDS011;14235;48.532;8.722;2024-03-08T04:14:05;28.47;;;17.70;;
26588;SDS011;14235;48.532;8.722;2024-03-08T04:16:31;21.80;;;16.37;;
26588;SDS011;14235;48.532;8.722;2024-03-08T04:18:58;27.93;;;16.27;;
26588;SDS011;14235;48.532;8.722;2024-03-08T04:21:24;22.57;;;16.50;;
26588;SDS011;14235;48.532;8.722;2024-03-08T04:23:50;26.17;;;16.27;;
26588;SDS011;14235;48.532;8.722;2024-03-08T04:26:16;21.80;;;14.93;;
26588;SDS011;14235;48.532;8.722;2024-03-08T04:28:42;24.83;;;16.20;;
26588;SDS011;14235;48.532;8.722;2024-03-08T04:31:07;21.47;;;15.53;;
26588;SDS011;14235;48.532;8.722;2024-03-08T04:33:33;28.47;;;15.23;;
26588;SDS011;14235;48.532;8.722;2024-03-08T04:36:00;22.03;;;15.70;;
26588;SDS011;14235;48.532;8.722;2024-03-08T04:38:29;21.73;;;15.20;;
26588;SDS011;14235;48.532;8.722;2024-03-08T04:40:55;22.60;;;15.73;;
26588;SDS011;14235;48.532;8.722;2024-03-08T04:43:21;22.63;;;15.80;;
26588;SDS011;14235;48.532;8.722;2024-03-08T04:45:50;22.90;;;14.97;;
26588;SDS011;14235;48.532;8.722;2024-03-08T04:48:16;23.17;;;15.63;;
26588;SDS011;14235;48.532;8.722;2024-03-08T04:50:42;21.43;;;15.63;;
26588;SDS011;14235;48.532;8.722;2024-03-08T04:53:09;20.23;;;15.03;;
26588;SDS011;14235;48.532;8.722;2024-03-08T04:55:35;19.50;;;15.10;;
26588;SDS011;14235;48.532;8.722;2024-03-08T04:58:02;20.33;;;14.67;;
26588;SDS011;14235;48.532;8.722;2024-03-08T05:00:30;25.27;;;15.47;;
26588;SDS011;14235;48.532;8.722;2024-03-08T05:02:56;25.73;;;15.55;;
26588;SDS011;14235;48.532;8.722;2024-03-08T05:05:23;21.00;;;15.73;;
26588;SDS011;14235;48.532;8.722;2024-03-08T05:07:49;24.30;;;15.47;;
26588;SDS011;14235;48.532;8.722;2024-03-08T05:10:15;20.73;;;15.47;;
26588;SDS011;14235;48.532;8.722;2024-03-08T05:12:42;22.07;;;15.57;;
26588;SDS011;14235;48.532;8.722;2024-03-08T05:15:08;19.60;;;14.80;;
26588;SDS011;14235;48.532;8.722;2024-03-08T05:17:34;21.67;;;15.87;;
26588;SDS011;14235;48.532;8.722;2024-03-08T05:20:00;20.90;;;15.07;;
26588;SDS011;14235;48.532;8.722;2024-03-08T05:22:26;19.20;;;14.87;;
26588;SDS011;14235;48.532;8.722;2024-03-08T05:24:52;20.57;;;14.87;;
26588;SDS011;14235;48.532;8.722;2024-03-08T05:27:18;20.53;;;14.47;;
26588;SDS011;14235;48.532;8.722;2024-03-08T05:29:44;20.03;;;14.20;;
26588;SDS011;14235;48.532;8.722;2024-03-08T05:32:11;18.37;;;14.07;;
26588;SDS011;14235;48.532;8.722;2024-03-08T05:34:37;16.70;;;13.47;;
26588;SDS011;14235;48.532;8.722;2024-03-08T05:37:03;21.57;;;15.20;;
26588;SDS011;14235;48.532;8.722;2024-03-08T05:39:29;20.57;;;15.13;;
26588;SDS011;14235;48.532;8.722;2024-03-08T05:41:55;20.60;;;15.40;;
26588;SDS011;14235;48.532;8.722;2024-03-08T05:44:21;21.90;;;15.50;;
26588;SDS011;14235;48.532;8.722;2024-03-08T05:46:48;23.10;;;15.70;;
26588;SDS011;14235;48.532;8.722;2024-03-08T05:49:14;21.27;;;15.77;;
26588;SDS011;14235;48.532;8.722;2024-03-08T05:51:40;21.40;;;15.07;;
26588;SDS011;14235;48.532;8.722;2024-03-08T05:54:07;22.57;;;15.40;;
26588;SDS011;14235;48.532;8.722;2024-03-08T05:56:36;18.30;;;14.27;;
26588;SDS011;14235;48.532;8.722;2024-03-08T05:59:02;20.93;;;14.87;;
26588;SDS011;14235;48.532;8.722;2024-03-08T06:01:28;20.60;;;15.03;;
26588;SDS011;14235;48.532;8.722;2024-03-08T06:03:55;20.43;;;15.70;;
26588;SDS011;14235;48.532;8.722;2024-03-08T06:06:25;22.17;;;16.37;;
26588;SDS011;14235;48.532;8.722;2024-03-08T06:08:51;23.23;;;16.83;;
26588;SDS011;14235;48.532;8.722;2024-03-08T06:11:19;23.23;;;15.83;;
26588;SDS011;14235;48.532;8.722;2024-03-08T06:13:45;25.00;;;16.63;;
26588;SDS011;14235;48.532;8.722;2024-03-08T06:16:13;24.67;;;17.53;;
26588;SDS011;14235;48.532;8.722;2024-03-08T06:18:41;23.60;;;16.63;;
26588;SDS011;14235;48.532;8.722;2024-03-08T06:21:08;24.57;;;17.30;;
26588;SDS011;14235;48.532;8.722;2024-03-08T06:24:04;24.00;;;16.87;;
26588;SDS011;14235;48.532;8.722;2024-03-08T06:38:49;23.47;;;16.37;;
26588;SDS011;14235;48.532;8.722;2024-03-08T06:41:15;23.83;;;17.13;;
26588;SDS011;14235;48.532;8.722;2024-03-08T06:43:44;25.00;;;17.13;;
26588;SDS011;14235;48.532;8.722;2024-03-08T06:46:11;26.53;;;16.87;;
26588;SDS011;14235;48.532;8.722;2024-03-08T06:48:37;23.40;;;16.93;;
26588;SDS011;14235;48.532;8.722;2024-03-08T06:51:03;25.93;;;17.50;;
26588;SDS011;14235;48.532;8.722;2024-03-08T06:53:30;26.10;;;17.47;;
26588;SDS011;14235;48.532;8.722;2024-03-08T06:55:56;23.60;;;16.97;;
26588;SDS011;14235;48.532;8.722;2024-03-08T06:58:22;21.60;;;16.47;;
26588;SDS011;14235;48.532;8.722;2024-03-08T07:00:48;24.10;;;17.10;;
26588;SDS011;14235;48.532;8.722;2024-03-08T07:03:17;27.17;;;17.10;;
26588;SDS011;14235;48.532;8.722;2024-03-08T07:05:43;23.70;;;16.60;;
26588;SDS011;14235;48.532;8.722;2024-03-08T07:08:09;23.17;;;16.90;;
26588;SDS011;14235;48.532;8.722;2024-03-08T07:10:39;25.77;;;17.10;;
26588;SDS011;14235;48.532;8.722;2024-03-08T07:13:06;23.30;;;16.57;;
26588;SDS011;14235;48.532;8.722;2024-03-08T07:15:32;25.23;;;17.57;;
26588;SDS011;14235;48.532;8.722;2024-03-08T07:17:58;21.90;;;16.53;;
26588;SDS011;14235;48.532;8.722;2024-03-08T07:20:27;21.37;;;16.23;;
26588;SDS011;14235;48.532;8.722;2024-03-08T07:22:53;23.57;;;16.77;;
26588;SDS011;14235;48.532;8.722;2024-03-08T07:25:19;23.53;;;16.77;;
26588;SDS011;14235;48.532;8.722;2024-03-08T07:27:46;26.97;;;17.47;;
26588;SDS011;14235;48.532;8.722;2024-03-08T07:30:12;24.70;;;16.67;;
26588;SDS011;14235;48.532;8.722;2024-03-08T07:32:58;22.77;;;16.60;;
26588;SDS011;14235;48.532;8.722;2024-03-08T07:35:24;23.57;;;17.47;;
26588;SDS011;14235;48.532;8.722;2024-03-08T07:37:51;25.13;;;18.52;;
26588;SDS011;14235;48.532;8.722;2024-03-08T07:40:19;21.83;;;16.67;;
26588;SDS011;14235;48.532;8.722;2024-03-08T07:42:45;23.20;;;17.37;;
26588;SDS011;14235;48.532;8.722;2024-03-08T07:45:11;23.73;;;16.58;;
26588;SDS011;14235;48.532;8.722;2024-03-08T07:47:37;19.67;;;15.57;;
26588;SDS011;14235;48.532;8.722;2024-03-08T07:50:05;21.45;;;15.88;;
26588;SDS011;14235;48.532;8.722;2024-03-08T07:52:33;23.42;;;16.42;;
26588;SDS011;14235;48.532;8.722;2024-03-08T07:54:59;23.27;;;16.90;;
26588;SDS011;14235;48.532;8.722;2024-03-08T07:57:25;24.83;;;17.67;;
26588;SDS011;14235;48.532;8.722;2024-03-08T07:59:51;24.45;;;16.95;;
26588;SDS011;14235;48.532;8.722;2024-03-08T08:02:17;26.58;;;16.60;;
26588;SDS011;14235;48.532;8.722;2024-03-08T08:04:43;24.42;;;17.77;;
26588;SDS011;14235;48.532;8.722;2024-03-08T08:07:12;24.02;;;16.40;;
26588;SDS011;14235;48.532;8.722;2024-03-08T08:09:39;23.58;;;16.63;;
26588;SDS011;14235;48.532;8.722;2024-03-08T08:12:07;24.03;;;17.07;;
26588;SDS011;14235;48.532;8.722;2024-03-08T08:14:36;20.08;;;15.85;;
26588;SDS011;14235;48.532;8.722;2024-03-08T08:17:02;23.67;;;16.60;;
26588;SDS011;14235;48.532;8.722;2024-03-08T08:19:29;22.58;;;15.80;;
26588;SDS011;14235;48.532;8.722;2024-03-08T08:21:55;27.00;;;17.38;;
26588;SDS011;14235;48.532;8.722;2024-03-08T08:24:21;24.20;;;17.58;;
26588;SDS011;14235;48.532;8.722;2024-03-08T08:26:47;22.85;;;16.80;;
26588;SDS011;14235;48.532;8.722;2024-03-08T08:29:13;25.85;;;18.25;;
26588;SDS011;14235;48.532;8.722;2024-03-08T08:31:39;25.10;;;17.85;;
26588;SDS011;14235;48.532;8.722;2024-03-08T08:34:05;22.38;;;16.38;;
26588;SDS011;14235;48.532;8.722;2024-03-08T08:36:32;22.42;;;16.65;;
26588;SDS011;14235;48.532;8.722;2024-03-08T08:38:58;22.98;;;16.90;;
26588;SDS011;14235;48.532;8.722;2024-03-08T08:41:25;23.70;;;16.90;;
26588;SDS011;14235;48.532;8.722;2024-03-08T08:43:53;24.95;;;17.95;;
26588;SDS011;14235;48.532;8.722;2024-03-08T08:46:19;24.23;;;18.10;;
26588;SDS011;14235;48.532;8.722;2024-03-08T08:48:46;24.02;;;17.75;;
26588;SDS011;14235;48.532;8.722;2024-03-08T08:51:12;24.92;;;17.67;;
26588;SDS011;14235;48.532;8.722;2024-03-08T08:53:38;24.35;;;16.45;;
26588;SDS011;14235;48.532;8.722;2024-03-08T08:56:08;24.02;;;16.90;;
26588;SDS011;14235;48.532;8.722;2024-03-08T08:58:34;24.73;;;17.80;;
26588;SDS011;14235;48.532;8.722;2024-03-08T09:01:00;22.15;;;17.27;;
26588;SDS011;14235;48.532;8.722;2024-03-08T09:03:26;22.77;;;16.70;;
26588;SDS011;14235;48.532;8.722;2024-03-08T09:05:54;22.90;;;16.48;;
26588;SDS011;14235;48.532;8.722;2024-03-08T09:08:21;23.70;;;16.35;;
26588;SDS011;14235;48.532;8.722;2024-03-08T09:10:48;22.08;;;16.23;;
26588;SDS011;14235;48.532;8.722;2024-03-08T09:13:14;23.13;;;16.50;;
26588;SDS011;14235;48.532;8.722;2024-03-08T09:15:41;21.63;;;15.60;;
26588;SDS011;14235;48.532;8.722;2024-03-08T09:18:07;24.23;;;16.90;;
26588;SDS011;14235;48.532;8.722;2024-03-08T09:20:34;21.65;;;15.77;;
26588;SDS011;14235;48.532;8.722;2024-03-08T09:23:00;20.27;;;15.27;;
26588;SDS011;14235;48.532;8.722;2024-03-08T09:25:26;21.25;;;15.38;;
26588;SDS011;14235;48.532;8.722;2024-03-08T09:27:53;18.95;;;14.27;;
26588;SDS011;14235;48.532;8.722;2024-03-08T09:30:19;20.80;;;14.57;;
26588;SDS011;14235;48.532;8.722;2024-03-08T09:32:46;18.95;;;14.55;;
26588;SDS011;14235;48.532;8.722;2024-03-08T09:35:12;21.58;;;14.88;;
26588;SDS011;14235;48.532;8.722;2024-03-08T09:37:38;20.38;;;14.00;;
26588;SDS011;14235;48.532;8.722;2024-03-08T09:40:04;20.55;;;14.60;;
26588;SDS011;14235;48.532;8.722;2024-03-08T09:42:34;18.00;;;13.40;;
26588;SDS011;14235;48.532;8.722;2024-03-08T09:45:05;18.73;;;13.95;;
26588;SDS011;14235;48.532;8.722;2024-03-08T09:47:32;19.17;;;14.32;;
26588;SDS011;14235;48.532;8.722;2024-03-08T09:50:04;19.27;;;13.95;;
26588;SDS011;14235;48.532;8.722;2024-03-08T09:52:30;17.80;;;13.07;;
26588;SDS011;14235;48.532;8.722;2024-03-08T09:54:57;19.52;;;14.32;;
26588;SDS011;14235;48.532;8.722;2024-03-08T09:57:25;22.55;;;14.65;;
26588;SDS011;14235;48.532;8.722;2024-03-08T09:59:51;20.80;;;15.07;;
26588;SDS011;14235;48.532;8.722;2024-03-08T10:02:18;20.88;;;15.20;;
26588;SDS011;14235;48.532;8.722;2024-03-08T10:04:44;18.08;;;13.38;;
26588;SDS011;14235;48.532;8.722;2024-03-08T10:07:11;16.95;;;13.30;;
26588;SDS011;14235;48.532;8.722;2024-03-08T10:09:38;18.52;;;14.00;;
26588;SDS011;14235;48.532;8.722;2024-03-08T10:12:04;18.48;;;13.85;;
26588;SDS011;14235;48.532;8.722;2024-03-08T10:14:30;19.48;;;13.07;;
26588;SDS011;14235;48.532;8.722;2024-03-08T10:16:57;18.48;;;13.93;;
26588;SDS011;14235;48.532;8.722;2024-03-08T10:19:26;19.13;;;13.98;;
26588;SDS011;14235;48.532;8.722;2024-03-08T10:21:54;16.75;;;13.27;;
26588;SDS011;14235;48.532;8.722;2024-03-08T10:24:24;25.13;;;14.48;;
26588;SDS011;14235;48.532;8.722;2024-03-08T10:26:53;18.50;;;13.85;;
26588;SDS011;14235;48.532;8.722;2024-03-08T10:29:19;21.38;;;15.07;;
26588;SDS011;14235;48.532;8.722;2024-03-08T10:31:45;16.52;;;12.65;;
26588;SDS011;14235;48.532;8.722;2024-03-08T10:34:11;18.40;;;13.30;;
26588;SDS011;14235;48.532;8.722;2024-03-08T10:36:37;16.95;;;12.85;;
26588;SDS011;14235;48.532;8.722;2024-03-08T10:39:05;18.80;;;13.27;;
26588;SDS011;14235;48.532;8.722;2024-03-08T10:41:32;17.33;;;13.30;;
26588;SDS011;14235;48.532;8.722;2024-03-08T10:44:16;18.33;;;13.15;;
26588;SDS011;14235;48.532;8.722;2024-03-08T10:49:32;19.90;;;12.80;;
26588;SDS011;14235;48.532;8.722;2024-03-08T10:52:04;17.10;;;13.32;;
26588;SDS011;14235;48.532;8.722;2024-03-08T10:54:33;15.45;;;12.50;;
26588;SDS011;14235;48.532;8.722;2024-03-08T10:56:59;16.27;;;12.68;;
26588;SDS011;14235;48.532;8.722;2024-03-08T10:59:26;18.75;;;13.27;;
26588;SDS011;14235;48.532;8.722;2024-03-08T11:01:53;17.05;;;12.90;;
26588;SDS011;14235;48.532;8.722;2024-03-08T11:04:19;15.88;;;12.57;;
26588;SDS011;14235;48.532;8.722;2024-03-08T11:06:47;17.38;;;12.98;;
26588;SDS011;14235;48.532;8.722;2024-03-08T11:09:30;18.67;;;13.25;;
26588;SDS011;14235;48.532;8.722;2024-03-08T11:14:45;18.55;;;13.07;;
26588;SDS011;14235;48.532;8.722;2024-03-08T11:17:13;20.90;;;14.35;;
26588;SDS011;14235;48.532;8.722;2024-03-08T11:19:45;17.10;;;13.75;;
26588;SDS011;14235;48.532;8.722;2024-03-08T11:22:19;18.00;;;13.40;;
26588;SDS011;14235;48.532;8.722;2024-03-08T11:24:48;16.38;;;12.57;;
26588;SDS011;14235;48.532;8.722;2024-03-08T11:27:14;18.08;;;13.10;;
26588;SDS011;14235;48.532;8.722;2024-03-08T11:29:41;15.98;;;11.57;;
26588;SDS011;14235;48.532;8.722;2024-03-08T11:34:33;15.85;;;12.48;;
26588;SDS011;14235;48.532;8.722;2024-03-08T11:36:59;16.98;;;12.68;;
26588;SDS011;14235;48.532;8.722;2024-03-08T11:39:25;14.52;;;11.38;;
26588;SDS011;14235;48.532;8.722;2024-03-08T11:41:53;16.75;;;12.55;;
26588;SDS011;14235;48.532;8.722;2024-03-08T11:44:20;16.08;;;12.15;;
26588;SDS011;14235;48.532;8.722;2024-03-08T11:46:46;17.27;;;12.75;;
26588;SDS011;14235;48.532;8.722;2024-03-08T11:49:13;14.95;;;12.32;;
26588;SDS011;14235;48.532;8.722;2024-03-08T11:51:39;15.02;;;12.13;;
26588;SDS011;14235;48.532;8.722;2024-03-08T11:54:06;14.50;;;11.35;;
26588;SDS011;14235;48.532;8.722;2024-03-08T11:56:32;15.70;;;12.50;;
26588;SDS011;14235;48.532;8.722;2024-03-08T11:58:59;17.20;;;12.32;;
26588;SDS011;14235;48.532;8.722;2024-03-08T12:01:26;17.95;;;13.55;;
26588;SDS011;14235;48.532;8.722;2024-03-08T12:03:56;15.82;;;12.88;;
26588;SDS011;14235;48.532;8.722;2024-03-08T12:06:26;19.33;;;13.88;;
26588;SDS011;14235;48.532;8.722;2024-03-08T12:08:54;18.17;;;13.68;;
26588;SDS011;14235;48.532;8.722;2024-03-08T12:11:20;15.38;;;12.50;;
26588;SDS011;14235;48.532;8.722;2024-03-08T12:13:49;15.70;;;11.35;;
26588;SDS011;14235;48.532;8.722;2024-03-08T12:16:16;14.18;;;11.75;;
26588;SDS011;14235;48.532;8.722;2024-03-08T12:18:43;16.15;;;12.52;;
26588;SDS011;14235;48.532;8.722;2024-03-08T12:21:11;13.63;;;11.20;;
26588;SDS011;14235;48.532;8.722;2024-03-08T12:23:39;13.48;;;11.38;;
26588;SDS011;14235;48.532;8.722;2024-03-08T12:26:12;15.27;;;12.18;;
26588;SDS011;14235;48.532;8.722;2024-03-08T12:28:39;16.65;;;13.27;;
26588;SDS011;14235;48.532;8.722;2024-03-08T12:31:06;16.98;;;12.52;;
26588;SDS011;14235;48.532;8.722;2024-03-08T12:33:57;14.65;;;11.30;;
26588;SDS011;14235;48.532;8.722;2024-03-08T12:36:24;13.77;;;11.77;;
26588;SDS011;14235;48.532;8.722;2024-03-08T12:38:50;15.95;;;12.05;;
26588;SDS011;14235;48.532;8.722;2024-03-08T12:41:17;15.82;;;11.82;;
26588;SDS011;14235;48.532;8.722;2024-03-08T12:43:44;14.60;;;12.02;;
26588;SDS011;14235;48.532;8.722;2024-03-08T12:46:16;15.80;;;12.55;;
26588;SDS011;14235;48.532;8.722;2024-03-08T12:48:42;14.85;;;11.70;;
26588;SDS011;14235;48.532;8.722;2024-03-08T12:51:11;16.58;;;11.60;;
26588;SDS011;14235;48.532;8.722;2024-03-08T12:53:38;16.40;;;12.32;;
26588;SDS011;14235;48.532;8.722;2024-03-08T12:56:05;14.35;;;12.40;;
26588;SDS011;14235;48.532;8.722;2024-03-08T12:58:34;14.13;;;11.55;;
26588;SDS011;14235;48.532;8.722;2024-03-08T13:01:01;13.32;;;10.77;;
26588;SDS011;14235;48.532;8.722;2024-03-08T13:03:29;17.10;;;12.02;;
26588;SDS011;14235;48.532;8.722;2024-03-08T13:05:56;14.38;;;11.20;;
26588;SDS011;14235;48.532;8.722;2024-03-08T13:08:22;13.00;;;10.77;;
26588;SDS011;14235;48.532;8.722;2024-03-08T13:10:51;13.70;;;11.68;;
26588;SDS011;14235;48.532;8.722;2024-03-08T13:13:17;13.13;;;11.45;;
26588;SDS011;14235;48.532;8.722;2024-03-08T13:15:44;15.55;;;11.07;;
26588;SDS011;14235;48.532;8.722;2024-03-08T13:18:10;15.60;;;12.10;;
26588;SDS011;14235;48.532;8.722;2024-03-08T13:20:36;13.70;;;11.63;;
26588;SDS011;14235;48.532;8.722;2024-03-08T13:23:06;14.88;;;11.95;;
26588;SDS011;14235;48.532;8.722;2024-03-08T13:25:33;14.55;;;12.55;;
26588;SDS011;14235;48.532;8.722;2024-03-08T13:27:59;13.32;;;11.93;;
26588;SDS011;14235;48.532;8.722;2024-03-08T13:30:25;13.77;;;11.57;;
26588;SDS011;14235;48.532;8.722;2024-03-08T13:32:52;14.48;;;12.20;;
26588;SDS011;14235;48.532;8.722;2024-03-08T13:35:20;13.40;;;11.55;;
26588;SDS011;14235;48.532;8.722;2024-03-08T13:37:51;12.65;;;11.30;;
26588;SDS011;14235;48.532;8.722;2024-03-08T13:40:17;13.88;;;11.80;;
26588;SDS011;14235;48.532;8.722;2024-03-08T13:42:46;14.63;;;12.10;;
26588;SDS011;14235;48.532;8.722;2024-03-08T13:47:42;15.75;;;12.50;;
26588;SDS011;14235;48.532;8.722;2024-03-08T13:50:08;13.85;;;11.32;;
26588;SDS011;14235;48.532;8.722;2024-03-08T13:52:38;13.23;;;11.48;;
26588;SDS011;14235;48.532;8.722;2024-03-08T13:55:07;13.75;;;11.88;;
26588;SDS011;14235;48.532;8.722;2024-03-08T13:57:33;13.15;;;11.75;;
26588;SDS011;14235;48.532;8.722;2024-03-08T13:59:59;11.93;;;10.65;;
26588;SDS011;14235;48.532;8.722;2024-03-08T14:02:25;12.57;;;11.30;;
26588;SDS011;14235;48.532;8.722;2024-03-08T14:04:56;14.07;;;11.32;;
26588;SDS011;14235;48.532;8.722;2024-03-08T14:07:22;17.55;;;14.13;;
26588;SDS011;14235;48.532;8.722;2024-03-08T14:09:48;13.07;;;11.77;;
26588;SDS011;14235;48.532;8.722;2024-03-08T14:12:14;14.27;;;12.00;;
26588;SDS011;14235;48.532;8.722;2024-03-08T14:14:41;12.80;;;11.48;;
26588;SDS011;14235;48.532;8.722;2024-03-08T14:17:07;12.65;;;11.45;;
26588;SDS011;14235;48.532;8.722;2024-03-08T14:19:35;13.07;;;11.77;;
26588;SDS011;14235;48.532;8.722;2024-03-08T14:22:01;11.88;;;10.68;;
26588;SDS011;14235;48.532;8.722;2024-03-08T14:24:29;13.15;;;11.32;;
26588;SDS011;14235;48.532;8.722;2024-03-08T14:26:56;13.00;;;11.75;;
26588;SDS011;14235;48.532;8.722;2024-03-08T14:29:24;12.65;;;11.38;;
26588;SDS011;14235;48.532;8.722;2024-03-08T14:31:53;13.02;;;11.65;;
26588;SDS011;14235;48.532;8.722;2024-03-08T14:34:22;11.98;;;10.90;;
26588;SDS011;14235;48.532;8.722;2024-03-08T14:36:52;12.50;;;11.30;;
26588;SDS011;14235;48.532;8.722;2024-03-08T14:39:18;12.93;;;11.73;;
26588;SDS011;14235;48.532;8.722;2024-03-08T14:41:47;12.30;;;11.00;;
26588;SDS011;14235;48.532;8.722;2024-03-08T14:44:13;12.80;;;11.55;;